Time;durP1;ratioP1;P1;durP2;ratioP2;P2;SDS_P1;SDS_P2;PMS_P1;PMS_P2;Temp;Humidity;BMP_temperature;BMP_pressure;BME280_temperature;BME280_humidity;BME280_pressure;Samples;Min_cycle;Max_cycle;Signal;HPM_P1;HPM_P2
2021/03/02 00:02:04;;;;;;;3.40;1.77;;;3.60;98.00;;;;;;5069324;28;20484;-73
2021/03/02 00:04:32;;;;;;;1.20;1.00;;;3.60;98.00;;;;;;5073182;28;20457;-72
2021/03/02 00:06:59;;;;;;;1.80;1.40;;;3.70;98.00;;;;;;5070945;28;20461;-72
2021/03/02 00:09:26;;;;;;;1.60;1.33;;;3.70;98.00;;;;;;5073179;28;20975;-72
2021/03/02 00:11:54;;;;;;;1.30;1.20;;;3.60;98.00;;;;;;5070805;28;20935;-72
2021/03/02 00:14:21;;;;;;;1.20;1.00;;;3.60;98.00;;;;;;5072490;28;20460;-72
2021/03/02 00:16:55;;;;;;;1.57;1.27;;;3.60;98.00;;;;;;5069421;28;20468;-74
2021/03/02 00:19:27;;;;;;;1.40;1.20;;;3.80;98.00;;;;;;5072744;28;20464;-73
2021/03/02 00:21:58;;;;;;;1.93;1.40;;;3.70;98.00;;;;;;5085389;28;20481;-73
2021/03/02 00:24:32;;;;;;;1.30;1.20;;;3.50;98.00;;;;;;5072684;28;20496;-73
2021/03/02 00:26:59;;;;;;;1.30;1.07;;;3.40;98.00;;;;;;5070755;28;20457;-73
2021/03/02 00:29:27;;;;;;;1.20;1.10;;;3.40;98.00;;;;;;5072924;28;20457;-73
2021/03/02 00:31:54;;;;;;;1.83;1.40;;;3.40;98.00;;;;;;5070206;28;20485;-73
2021/03/02 00:34:21;;;;;;;1.20;1.00;;;3.40;98.00;;;;;;5072786;28;20491;-73
2021/03/02 00:36:47;;;;;;;2.13;2.00;;;3.40;98.00;;;;;;5070410;28;20488;-73
2021/03/02 00:39:17;;;;;;;2.07;1.63;;;3.60;98.00;;;;;;5072717;28;20484;-73
2021/03/02 00:41:44;;;;;;;2.70;1.20;;;3.60;98.00;;;;;;5070043;28;20513;-73
2021/03/02 00:44:13;;;;;;;5.17;2.20;;;3.50;98.00;;;;;;5072540;28;20855;-72
2021/03/02 00:46:40;;;;;;;3.17;1.73;;;3.50;98.00;;;;;;5069924;28;20554;-72
2021/03/02 00:49:07;;;;;;;1.20;0.97;;;3.50;98.00;;;;;;5072336;28;20501;-72
2021/03/02 00:51:34;;;;;;;1.20;1.00;;;3.50;98.00;;;;;;5068701;28;20498;-72
2021/03/02 00:54:01;;;;;;;4.60;1.60;;;3.20;98.00;;;;;;5072322;28;20460;-72
2021/03/02 00:56:28;;;;;;;1.20;1.10;;;3.10;98.00;;;;;;5069925;28;20452;-72
2021/03/02 00:58:54;;;;;;;1.93;1.87;;;3.00;98.00;;;;;;5072152;28;20461;-72
2021/03/02 01:01:22;;;;;;;1.20;1.00;;;2.80;98.00;;;;;;5069740;28;20603;-72
2021/03/02 01:03:48;;;;;;;1.30;1.17;;;2.80;98.00;;;;;;5071991;28;20484;-72
2021/03/02 01:06:15;;;;;;;1.60;1.50;;;2.70;98.00;;;;;;5071211;28;20515;-72
2021/03/02 01:08:42;;;;;;;1.20;1.00;;;2.80;98.00;;;;;;5070034;28;20484;-72
2021/03/02 01:11:08;;;;;;;1.53;1.20;;;2.90;98.00;;;;;;5087193;28;20514;-72
2021/03/02 01:13:35;;;;;;;1.30;1.20;;;2.80;98.00;;;;;;5069577;28;20478;-72
2021/03/02 01:16:02;;;;;;;2.70;1.40;;;2.70;98.00;;;;;;5071798;28;20489;-72
2021/03/02 01:18:29;;;;;;;1.23;1.20;;;2.90;98.00;;;;;;5069369;28;20460;-72
2021/03/02 01:20:56;;;;;;;1.40;1.20;;;2.80;98.00;;;;;;5071356;28;20485;-72
2021/03/02 01:23:22;;;;;;;1.20;0.97;;;2.60;98.00;;;;;;5069439;28;20485;-72
2021/03/02 01:25:49;;;;;;;1.40;1.23;;;2.50;98.00;;;;;;5070654;28;20571;-72
2021/03/02 01:28:17;;;;;;;1.57;1.27;;;2.70;98.00;;;;;;5069451;28;20461;-72
2021/03/02 01:30:43;;;;;;;1.20;1.00;;;2.80;98.00;;;;;;5071944;28;20847;-72
2021/03/02 01:33:10;;;;;;;3.30;1.40;;;3.00;98.00;;;;;;5069317;28;20514;-72
2021/03/02 01:35:38;;;;;;;2.70;2.27;;;3.20;98.00;;;;;;5071591;28;20454;-72
2021/03/02 01:38:07;;;;;;;3.20;1.70;;;3.20;98.00;;;;;;5069198;28;20976;-72
2021/03/02 01:40:34;;;;;;;2.20;1.60;;;3.00;98.00;;;;;;5070157;28;20488;-72
2021/03/02 01:43:01;;;;;;;1.43;1.37;;;2.90;98.00;;;;;;5069032;28;20457;-72
2021/03/02 01:45:28;;;;;;;1.60;1.30;;;2.70;98.00;;;;;;5071128;28;20494;-72
2021/03/02 01:47:55;;;;;;;3.20;1.37;;;2.70;98.00;;;;;;5069025;28;20491;-72
2021/03/02 01:50:23;;;;;;;1.63;1.53;;;2.80;98.00;;;;;;5069471;28;20453;-71
2021/03/02 01:52:51;;;;;;;2.43;1.60;;;2.80;98.00;;;;;;5068973;28;20453;-72
2021/03/02 01:55:18;;;;;;;1.20;1.07;;;3.00;98.00;;;;;;5071306;28;20457;-72
2021/03/02 01:57:46;;;;;;;1.20;1.03;;;3.00;98.00;;;;;;5069058;28;20472;-72
2021/03/02 02:00:22;;;;;;;1.30;1.10;;;3.00;98.00;;;;;;5071250;28;20464;-72
2021/03/02 02:02:58;;;;;;;1.20;1.00;;;2.90;98.00;;;;;;5068719;28;20480;-72
2021/03/02 02:05:27;;;;;;;1.30;1.10;;;3.00;98.00;;;;;;5071124;28;20475;-72
2021/03/02 02:08:00;;;;;;;1.20;1.00;;;2.80;98.00;;;;;;5068786;28;20496;-72
2021/03/02 02:10:31;;;;;;;1.37;1.10;;;2.70;98.00;;;;;;5071090;28;20496;-73
2021/03/02 02:13:06;;;;;;;1.20;1.00;;;2.70;98.00;;;;;;5068863;28;20452;-73
2021/03/02 02:15:35;;;;;;;1.63;1.23;;;2.70;98.00;;;;;;5070900;28;20942;-72
2021/03/02 02:18:07;;;;;;;1.40;1.27;;;2.70;98.00;;;;;;5068975;28;20489;-72
2021/03/02 02:20:45;;;;;;;2.17;2.00;;;2.60;98.00;;;;;;5070976;28;20514;-72
2021/03/02 02:23:28;;;;;;;1.30;1.27;;;2.60;98.00;;;;;;5083658;28;20469;-72
2021/03/02 02:26:03;;;;;;;1.80;1.30;;;2.60;98.00;;;;;;5069795;28;20961;-72
2021/03/02 02:28:33;;;;;;;2.07;1.57;;;2.40;98.00;;;;;;5068807;28;20910;-72
2021/03/02 02:31:02;;;;;;;1.93;1.13;;;2.40;98.00;;;;;;5070920;28;20456;-72
2021/03/02 02:33:33;;;;;;;1.20;1.00;;;2.50;98.00;;;;;;5068791;28;20816;-72
2021/03/02 02:36:01;;;;;;;1.37;1.33;;;2.40;98.00;;;;;;5087447;28;20460;-72
2021/03/02 02:38:29;;;;;;;1.20;1.00;;;2.30;98.00;;;;;;5088053;28;20984;-72
2021/03/02 02:40:57;;;;;;;1.20;1.00;;;2.20;98.00;;;;;;5074820;28;20918;-72
2021/03/02 02:43:24;;;;;;;1.20;1.00;;;2.10;98.00;;;;;;5072647;28;20949;-72
2021/03/02 02:45:53;;;;;;;1.40;1.20;;;2.00;98.00;;;;;;5074580;28;20465;-72
2021/03/02 02:48:20;;;;;;;1.40;1.20;;;2.00;98.00;;;;;;5072360;28;20829;-72
2021/03/02 02:50:49;;;;;;;1.20;1.00;;;2.20;98.00;;;;;;5074475;28;20493;-72
2021/03/02 02:53:17;;;;;;;1.57;1.30;;;2.30;98.00;;;;;;5072221;28;21007;-72
2021/03/02 02:55:46;;;;;;;1.53;1.20;;;2.40;98.00;;;;;;5074508;28;20453;-72
2021/03/02 02:58:17;;;;;;;1.20;1.10;;;2.50;98.00;;;;;;5072259;28;20456;-72
2021/03/02 03:00:46;;;;;;;1.50;1.27;;;2.50;98.00;;;;;;5074273;28;20452;-72
2021/03/02 03:03:17;;;;;;;1.20;1.00;;;2.40;98.00;;;;;;5071883;28;20534;-72
2021/03/02 03:05:47;;;;;;;1.20;1.10;;;2.20;98.00;;;;;;5074280;28;20962;-72
2021/03/02 03:08:17;;;;;;;2.60;1.67;;;2.10;98.00;;;;;;5071967;28;20864;-72
2021/03/02 03:10:45;;;;;;;3.63;1.70;;;2.00;98.00;;;;;;5074174;28;20449;-72
2021/03/02 03:13:16;;;;;;;1.20;1.13;;;1.90;98.00;;;;;;5071570;28;20452;-72
2021/03/02 03:15:47;;;;;;;1.23;1.10;;;1.80;98.00;;;;;;5073980;28;20465;-72
2021/03/02 03:18:19;;;;;;;2.57;2.10;;;1.80;98.00;;;;;;5071631;28;20452;-72
2021/03/02 03:20:48;;;;;;;1.50;1.30;;;1.90;98.00;;;;;;5073839;28;20527;-72
2021/03/02 03:23:16;;;;;;;5.53;2.20;;;2.00;98.00;;;;;;5071930;28;20504;-72
2021/03/02 03:25:43;;;;;;;1.80;1.67;;;1.80;98.00;;;;;;5089550;28;20985;-72
2021/03/02 03:28:14;;;;;;;1.20;1.10;;;1.80;98.00;;;;;;5071894;28;20507;-72
2021/03/02 03:30:41;;;;;;;1.40;1.30;;;1.80;98.00;;;;;;5073812;28;20490;-72
2021/03/02 03:33:10;;;;;;;1.40;1.30;;;1.70;98.00;;;;;;5071590;28;20934;-72
2021/03/02 03:35:41;;;;;;;1.70;1.50;;;1.60;98.00;;;;;;5073948;28;20464;-72
2021/03/02 03:38:08;;;;;;;1.30;1.10;;;1.70;98.00;;;;;;5071618;28;20461;-72
2021/03/02 03:40:35;;;;;;;1.90;1.87;;;1.70;98.00;;;;;;5073729;28;20827;-72
2021/03/02 03:43:01;;;;;;;1.30;1.27;;;1.80;98.00;;;;;;5071097;28;20487;-72
2021/03/02 03:45:28;;;;;;;2.73;1.57;;;2.00;98.00;;;;;;5073043;28;20496;-72
2021/03/02 03:47:55;;;;;;;3.10;1.77;;;2.10;98.00;;;;;;5070000;28;20483;-72
2021/03/02 03:50:22;;;;;;;1.30;1.10;;;2.10;98.00;;;;;;5073434;28;20471;-72
2021/03/02 03:52:53;;;;;;;1.20;1.10;;;2.10;98.00;;;;;;5071003;28;20453;-72
2021/03/02 03:55:23;;;;;;;1.87;1.40;;;1.90;98.00;;;;;;5073515;28;20461;-72
2021/03/02 03:57:50;;;;;;;2.20;1.30;;;1.90;98.00;;;;;;5070962;28;20463;-72
2021/03/02 04:00:18;;;;;;;1.20;1.00;;;2.00;98.00;;;;;;5073232;28;20449;-72
2021/03/02 04:02:46;;;;;;;1.20;1.17;;;2.00;98.00;;;;;;5071148;28;20916;-72
2021/03/02 04:05:14;;;;;;;2.03;1.77;;;1.80;98.00;;;;;;5073251;28;20464;-72
2021/03/02 04:07:41;;;;;;;1.30;1.20;;;1.80;98.00;;;;;;5071076;28;20456;-72
2021/03/02 04:10:10;;;;;;;2.17;1.63;;;1.90;98.00;;;;;;5073213;28;20464;-72
2021/03/02 04:12:38;;;;;;;2.13;1.83;;;2.00;98.00;;;;;;5070741;28;20464;-72
2021/03/02 04:15:10;;;;;;;1.70;1.60;;;2.00;98.00;;;;;;5071719;28;20463;-72
2021/03/02 04:17:38;;;;;;;2.50;1.40;;;1.70;98.00;;;;;;5070350;28;20457;-72
2021/03/02 04:20:06;;;;;;;3.20;2.33;;;1.80;98.00;;;;;;5071665;28;20981;-72
2021/03/02 04:22:37;;;;;;;1.30;1.20;;;1.70;98.00;;;;;;5070665;28;20480;-72
2021/03/02 04:25:04;;;;;;;1.20;1.20;;;1.70;98.00;;;;;;5072975;28;20888;-72
2021/03/02 04:27:32;;;;;;;1.43;1.30;;;1.90;98.00;;;;;;5070395;28;20548;-72
2021/03/02 04:29:59;;;;;;;1.20;1.00;;;1.80;98.00;;;;;;5072649;28;20476;-72
2021/03/02 04:32:26;;;;;;;1.20;1.00;;;1.70;98.00;;;;;;5070024;28;20460;-72
2021/03/02 04:34:53;;;;;;;1.87;1.77;;;1.50;98.00;;;;;;5072893;28;20474;-72
2021/03/02 04:37:19;;;;;;;1.83;1.30;;;1.80;98.00;;;;;;5070119;28;20488;-72
2021/03/02 04:39:46;;;;;;;2.63;1.43;;;1.50;98.00;;;;;;5072792;28;20460;-72
2021/03/02 04:42:12;;;;;;;2.00;1.53;;;1.40;98.00;;;;;;5085780;28;20487;-72
2021/03/02 04:44:40;;;;;;;1.30;1.10;;;1.40;98.00;;;;;;5072421;28;20518;-72
2021/03/02 04:47:06;;;;;;;1.73;1.47;;;1.50;98.00;;;;;;5070067;28;20492;-72
2021/03/02 04:49:33;;;;;;;3.00;1.83;;;1.50;98.00;;;;;;5072511;28;20461;-72
2021/03/02 04:51:59;;;;;;;1.40;1.30;;;1.60;98.00;;;;;;5070191;28;20471;-72
2021/03/02 04:54:26;;;;;;;1.20;1.03;;;1.40;98.00;;;;;;5072326;28;20825;-72
2021/03/02 04:56:52;;;;;;;1.20;1.10;;;1.40;98.00;;;;;;5069990;28;21104;-72
2021/03/02 04:59:19;;;;;;;1.70;1.40;;;1.50;98.00;;;;;;5072113;28;20492;-72
2021/03/02 05:01:46;;;;;;;1.70;1.57;;;1.40;98.00;;;;;;5069975;28;20580;-72
2021/03/02 05:04:13;;;;;;;2.20;1.93;;;1.40;98.00;;;;;;5072032;28;20457;-72
2021/03/02 05:06:40;;;;;;;1.20;1.10;;;1.30;98.00;;;;;;5071592;28;20472;-72
2021/03/02 05:09:07;;;;;;;1.20;1.00;;;1.30;98.00;;;;;;5070875;28;20467;-72
2021/03/02 05:11:39;;;;;;;1.40;1.30;;;1.20;98.00;;;;;;5087524;28;20939;-72
2021/03/02 05:14:06;;;;;;;1.20;1.10;;;1.30;98.00;;;;;;5070071;28;20471;-72
2021/03/02 05:16:36;;;;;;;1.50;1.43;;;1.20;98.00;;;;;;5071889;28;21188;-72
2021/03/02 05:19:03;;;;;;;1.50;1.30;;;1.20;98.00;;;;;;5069451;28;20507;-72
2021/03/02 05:21:30;;;;;;;1.20;1.10;;;1.30;98.00;;;;;;5071732;28;20581;-72
2021/03/02 05:23:56;;;;;;;2.10;1.40;;;1.30;98.00;;;;;;5069554;28;20492;-72
2021/03/02 05:26:23;;;;;;;1.40;1.30;;;1.20;98.00;;;;;;5071606;28;20456;-72
2021/03/02 05:28:49;;;;;;;1.67;1.57;;;1.10;98.00;;;;;;5069527;28;20848;-72
2021/03/02 05:31:16;;;;;;;1.20;1.20;;;1.10;98.00;;;;;;5071525;28;20471;-72
2021/03/02 05:33:43;;;;;;;1.50;1.30;;;1.30;98.00;;;;;;5069035;28;20495;-72
2021/03/02 05:36:10;;;;;;;1.30;1.20;;;1.20;98.00;;;;;;5071498;28;20804;-72
2021/03/02 05:38:37;;;;;;;1.27;1.20;;;1.20;98.00;;;;;;5069408;28;20516;-72
2021/03/02 05:41:04;;;;;;;1.40;1.20;;;1.20;98.00;;;;;;5071413;28;20456;-72
2021/03/02 05:43:30;;;;;;;1.83;1.50;;;1.20;98.00;;;;;;5069073;28;20460;-72
2021/03/02 05:45:57;;;;;;;1.20;1.10;;;1.20;98.00;;;;;;5071094;28;20476;-72
2021/03/02 05:48:28;;;;;;;1.20;1.00;;;1.20;98.00;;;;;;5069222;28;20823;-72
2021/03/02 05:50:55;;;;;;;2.60;1.60;;;1.20;98.00;;;;;;5071604;28;20775;-72
2021/03/02 05:53:24;;;;;;;1.87;1.30;;;1.20;98.00;;;;;;5068959;28;20460;-72
2021/03/02 05:55:50;;;;;;;2.00;1.60;;;1.00;98.00;;;;;;5071374;28;20491;-72
2021/03/02 05:58:17;;;;;;;1.63;1.53;;;1.00;98.00;;;;;;5069039;28;20464;-72
2021/03/02 06:00:44;;;;;;;1.20;1.10;;;1.10;98.00;;;;;;5071453;28;20490;-72
2021/03/02 06:03:11;;;;;;;1.20;0.90;;;1.20;98.00;;;;;;5068830;28;20540;-72
2021/03/02 06:05:38;;;;;;;1.20;1.00;;;1.20;98.00;;;;;;5071293;28;20985;-71
2021/03/02 06:08:08;;;;;;;1.20;1.00;;;1.20;98.00;;;;;;5068933;28;20463;-72
2021/03/02 06:10:36;;;;;;;1.40;1.33;;;1.20;98.00;;;;;;5070638;28;20467;-72
2021/03/02 06:13:03;;;;;;;1.73;1.20;;;1.10;98.00;;;;;;5068800;28;20544;-72
2021/03/02 06:15:30;;;;;;;1.20;0.90;;;1.00;98.00;;;;;;5071080;28;20462;-72
2021/03/02 06:18:11;;;;;;;2.33;2.13;;;1.00;98.00;;;;;;5068728;28;20451;-72
2021/03/02 06:20:38;;;;;;;1.20;1.00;;;0.90;98.00;;;;;;5070786;28;20803;-72
2021/03/02 06:23:26;;;;;;;1.87;1.73;;;1.00;98.00;;;;;;5068621;28;20484;-72
2021/03/02 06:25:55;;;;;;;1.20;1.00;;;1.10;98.00;;;;;;5067540;28;20972;-72
2021/03/02 06:28:39;;;;;;;1.30;1.20;;;1.30;98.00;;;;;;5068489;28;20861;-72
2021/03/02 06:31:06;;;;;;;1.50;1.20;;;1.00;98.00;;;;;;5070733;28;20827;-72
2021/03/02 06:33:33;;;;;;;1.20;1.20;;;1.00;98.00;;;;;;5068330;28;20463;-71
2021/03/02 06:36:00;;;;;;;1.63;1.20;;;1.00;98.00;;;;;;5070811;28;20460;-72
2021/03/02 06:38:32;;;;;;;2.50;1.60;;;1.10;98.00;;;;;;5068590;28;21026;-72
2021/03/02 06:41:00;;;;;;;1.80;1.20;;;1.20;98.00;;;;;;5070862;28;20458;-72
2021/03/02 06:43:34;;;;;;;1.20;1.00;;;1.20;98.00;;;;;;5068494;28;20491;-72
2021/03/02 06:46:03;;;;;;;1.20;1.00;;;1.40;98.00;;;;;;5070829;28;20463;-71
2021/03/02 06:48:31;;;;;;;1.60;1.27;;;1.40;98.00;;;;;;5068833;28;20457;-72
2021/03/02 06:50:58;;;;;;;1.83;1.63;;;1.40;98.00;;;;;;5071015;28;20471;-72
2021/03/02 06:53:24;;;;;;;2.40;1.40;;;1.20;98.00;;;;;;5068466;28;20527;-71
2021/03/02 06:55:51;;;;;;;3.00;1.20;;;1.30;98.00;;;;;;5070775;28;20455;-71
2021/03/02 06:58:23;;;;;;;1.70;1.40;;;1.20;98.00;;;;;;5068434;28;20459;-71
2021/03/02 07:00:52;;;;;;;1.20;1.00;;;1.10;98.00;;;;;;5070597;28;20471;-72
2021/03/02 07:03:30;;;;;;;1.30;1.27;;;1.10;98.00;;;;;;5068293;28;20523;-72
2021/03/02 07:06:01;;;;;;;1.20;1.00;;;1.10;98.00;;;;;;5086233;28;20456;-72
2021/03/02 07:08:27;;;;;;;1.20;1.10;;;1.10;98.00;;;;;;5068285;28;20460;-72
2021/03/02 07:10:54;;;;;;;1.97;1.57;;;1.30;98.00;;;;;;5070706;28;20467;-72
2021/03/02 07:13:23;;;;;;;1.30;1.20;;;1.30;98.00;;;;;;5068281;28;20934;-72
2021/03/02 07:15:51;;;;;;;1.57;1.57;;;1.30;98.00;;;;;;5070388;28;20456;-71
2021/03/02 07:18:20;;;;;;;2.13;1.43;;;1.30;98.00;;;;;;5068010;28;20455;-71
2021/03/02 07:20:49;;;;;;;1.20;1.00;;;1.30;98.00;;;;;;5070598;28;20507;-72
2021/03/02 07:23:21;;;;;;;1.20;1.00;;;1.50;98.00;;;;;;5068936;28;20516;-71
2021/03/02 07:25:50;;;;;;;1.30;1.20;;;1.70;98.00;;;;;;5073938;28;20452;-71
2021/03/02 07:28:21;;;;;;;1.60;1.30;;;1.80;98.00;;;;;;5070998;28;20472;-72
2021/03/02 07:30:49;;;;;;;1.30;1.10;;;1.90;98.00;;;;;;5073881;28;20453;-72
2021/03/02 07:33:17;;;;;;;1.20;1.03;;;2.00;98.00;;;;;;5070970;28;20460;-71
2021/03/02 07:35:44;;;;;;;1.80;1.73;;;2.00;98.00;;;;;;5073867;28;20456;-71
2021/03/02 07:38:16;;;;;;;2.03;1.87;;;2.10;98.00;;;;;;5071176;28;20495;-71
2021/03/02 07:40:51;;;;;;;1.20;1.03;;;2.20;98.00;;;;;;5073643;28;20463;-71
2021/03/02 07:43:29;;;;;;;1.70;1.60;;;2.20;98.00;;;;;;5069890;28;20487;-71
2021/03/02 07:45:58;;;;;;;1.20;1.00;;;2.30;98.00;;;;;;5073562;28;20488;-71
2021/03/02 07:48:27;;;;;;;2.50;1.47;;;2.30;98.00;;;;;;5071047;28;20468;-71
2021/03/02 07:51:19;;;;;;;2.90;1.50;;;2.50;98.00;;;;;;5089051;28;20460;-71
2021/03/02 07:53:46;;;;;;;1.20;1.20;;;2.40;98.00;;;;;;5070958;28;20509;-71
2021/03/02 07:56:24;;;;;;;3.53;1.47;;;2.50;98.00;;;;;;5073467;28;20461;-71
2021/03/02 07:59:16;;;;;;;2.40;1.47;;;2.50;98.00;;;;;;5070844;28;20463;-71
2021/03/02 08:01:44;;;;;;;1.57;1.47;;;2.60;98.00;;;;;;5073344;28;20491;-71
2021/03/02 08:04:26;;;;;;;1.20;1.17;;;2.70;98.00;;;;;;5070814;28;20845;-71
2021/03/02 08:06:55;;;;;;;2.17;1.70;;;2.90;98.00;;;;;;5073330;28;20544;-70
2021/03/02 08:09:29;;;;;;;1.20;1.00;;;3.00;98.00;;;;;;5068659;28;20494;-72
2021/03/02 08:12:16;;;;;;;4.27;3.63;;;3.20;98.00;;;;;;5072709;28;20453;-73
2021/03/02 08:14:44;;;;;;;1.20;1.03;;;3.30;98.00;;;;;;5072327;28;20468;-75
2021/03/02 08:17:19;;;;;;;1.50;1.43;;;3.50;98.00;;;;;;5070146;28;20456;-75
2021/03/02 08:19:51;;;;;;;2.10;1.73;;;3.70;98.00;;;;;;5072207;28;20457;-74
2021/03/02 08:22:49;;;;;;;3.00;2.50;;;3.90;98.00;;;;;;5068931;28;20485;-72
2021/03/02 08:25:29;;;;;;;2.90;1.63;;;4.10;98.00;;;;;;5072114;28;20464;-72
2021/03/02 08:28:01;;;;;;;1.40;1.27;;;4.20;98.00;;;;;;5069832;28;20524;-71
2021/03/02 08:30:30;;;;;;;2.37;1.77;;;4.40;98.00;;;;;;5071811;28;20507;-70
2021/03/02 08:33:00;;;;;;;2.57;2.13;;;4.60;98.00;;;;;;5069963;28;20457;-71
2021/03/02 08:35:30;;;;;;;1.77;1.70;;;4.80;98.00;;;;;;5071573;28;20457;-73
2021/03/02 08:37:59;;;;;;;1.93;1.83;;;4.90;98.00;;;;;;5070661;28;20470;-72
2021/03/02 08:40:40;;;;;;;1.60;1.40;;;5.00;98.00;;;;;;5072649;28;20499;-71
2021/03/02 08:43:08;;;;;;;2.33;2.07;;;5.10;98.00;;;;;;5070017;28;20557;-72
2021/03/02 08:45:37;;;;;;;2.83;2.30;;;5.30;98.00;;;;;;5072228;28;20524;-72
2021/03/02 08:48:25;;;;;;;1.63;1.47;;;5.50;98.00;;;;;;5069028;28;20537;-72
2021/03/02 08:50:54;;;;;;;1.73;1.60;;;5.80;98.00;;;;;;5072291;28;20864;-72
2021/03/02 08:53:47;;;;;;;1.20;1.10;;;6.20;98.00;;;;;;5069389;28;20849;-71
2021/03/02 08:56:20;;;;;;;2.13;1.17;;;6.60;98.00;;;;;;5072195;28;20542;-73
2021/03/02 08:58:48;;;;;;;1.30;1.10;;;7.00;98.00;;;;;;5070136;28;20469;-73
2021/03/02 09:01:16;;;;;;;6.20;1.80;;;7.30;98.00;;;;;;5070847;28;20543;-73
2021/03/02 09:03:46;;;;;;;1.70;1.60;;;7.70;98.00;;;;;;5069649;28;20453;-72
2021/03/02 09:06:16;;;;;;;1.70;1.50;;;7.90;98.00;;;;;;5071987;28;20466;-72
2021/03/02 09:09:03;;;;;;;1.73;1.60;;;7.80;98.00;;;;;;5085374;28;20946;-73
2021/03/02 09:11:33;;;;;;;5.43;2.53;;;7.90;98.00;;;;;;5071957;28;20557;-71
2021/03/02 09:14:02;;;;;;;1.20;1.20;;;8.00;98.00;;;;;;5069438;28;20456;-77
2021/03/02 09:16:37;;;;;;;1.50;1.37;;;8.20;98.00;;;;;;5071902;28;20454;-75
2021/03/02 09:19:16;;;;;;;1.50;1.43;;;8.20;98.00;;;;;;5069364;28;20543;-77
2021/03/02 09:21:44;;;;;;;2.40;1.93;;;;;;;;;;5071363;28;20484;-88
2021/03/02 09:24:13;;;;;;;1.73;1.70;;;;;;;;;;5069559;28;20442;-92
2021/03/02 09:26:40;;;;;;;1.20;1.07;;;8.60;98.00;;;;;;5071892;28;20562;-91
2021/03/02 09:29:10;;;;;;;2.27;1.97;;;8.70;98.00;;;;;;5070060;28;20447;-89
2021/03/02 09:31:37;;;;;;;1.50;1.30;;;8.80;98.00;;;;;;5072248;28;20552;-91
2021/03/02 09:34:05;;;;;;;3.37;2.50;;;8.90;98.00;;;;;;5069904;28;20463;-93
2021/03/02 09:36:32;;;;;;;1.60;1.30;;;9.00;98.00;;;;;;5073317;28;20848;-74
2021/03/02 09:39:01;;;;;;;1.40;1.40;;;9.10;97.60;;;;;;5069395;28;20456;-81
2021/03/02 09:41:32;;;;;;;2.30;2.17;;;9.30;97.40;;;;;;5071686;28;20534;-77
2021/03/02 09:44:18;;;;;;;2.70;1.60;;;9.40;96.80;;;;;;5069512;28;20464;-75
2021/03/02 09:46:45;;;;;;;2.07;1.93;;;9.50;96.60;;;;;;5086450;28;20467;-75
2021/03/02 09:49:29;;;;;;;1.97;1.60;;;9.70;96.00;;;;;;5069306;28;20950;-76
2021/03/02 09:51:55;;;;;;;3.00;2.47;;;9.90;95.90;;;;;;5071507;28;20589;-76
2021/03/02 09:54:22;;;;;;;1.63;1.20;;;10.20;94.80;;;;;;5069291;28;20461;-76
2021/03/02 09:56:56;;;;;;;1.40;1.20;;;10.50;94.10;;;;;;5087005;28;20460;-76
2021/03/02 09:59:23;;;;;;;1.83;1.77;;;10.70;93.70;;;;;;5068864;28;20453;-76
2021/03/02 10:01:51;;;;;;;2.17;1.60;;;11.00;92.20;;;;;;5071320;28;20478;-76
2021/03/02 10:04:19;;;;;;;2.47;1.63;;;11.20;90.70;;;;;;5068943;28;20942;-76
2021/03/02 10:06:46;;;;;;;2.13;1.50;;;11.40;90.80;;;;;;5071343;28;20458;-76
2021/03/02 10:09:23;;;;;;;4.57;2.60;;;11.60;90.40;;;;;;5068744;28;20461;-76
2021/03/02 10:12:07;;;;;;;1.90;1.80;;;11.70;89.60;;;;;;5071178;28;20452;-76
2021/03/02 10:14:38;;;;;;;3.73;1.77;;;11.90;89.60;;;;;;5068738;28;20466;-75
2021/03/02 10:17:05;;;;;;;9.90;2.17;;;12.20;88.70;;;;;;5071104;28;20950;-76
2021/03/02 10:19:34;;;;;;;3.40;2.50;;;12.50;87.40;;;;;;5068792;28;20457;-76
2021/03/02 10:22:04;;;;;;;2.70;1.70;;;12.70;86.90;;;;;;5086319;28;20492;-76
2021/03/02 10:24:36;;;;;;;1.60;1.50;;;12.90;87.00;;;;;;5069198;28;20461;-75
2021/03/02 10:27:11;;;;;;;3.10;1.60;;;12.90;86.60;;;;;;5071031;28;20960;-76
2021/03/02 10:29:38;;;;;;;2.97;1.80;;;13.10;86.40;;;;;;5070492;28;20983;-80
2021/03/02 10:32:05;;;;;;;2.83;1.53;;;13.20;85.50;;;;;;5086835;28;20458;-82
2021/03/02 10:34:35;;;;;;;3.80;2.00;;;13.40;85.30;;;;;;5083938;28;20467;-73
2021/03/02 10:37:03;;;;;;;3.10;1.93;;;13.40;84.80;;;;;;5070716;28;20457;-73
2021/03/02 10:42:11;;;;;;;1.73;1.50;;;13.70;84.20;;;;;;5084318;28;20484;-73
2021/03/02 10:44:38;;;;;;;1.50;1.40;;;13.70;84.50;;;;;;5084578;28;20446;-73
2021/03/02 10:47:06;;;;;;;1.73;1.40;;;13.90;83.60;;;;;;5071247;28;20615;-73
2021/03/02 10:49:33;;;;;;;2.43;1.90;;;14.00;83.20;;;;;;5067090;28;20561;-74
2021/03/02 10:52:00;;;;;;;1.90;1.30;;;14.20;83.00;;;;;;5070529;28;20587;-75
2021/03/02 10:54:26;;;;;;;2.53;2.33;;;14.20;83.40;;;;;;5068419;28;20452;-74
2021/03/02 10:56:54;;;;;;;1.93;1.60;;;14.30;82.70;;;;;;5070889;28;20457;-75
2021/03/02 10:59:20;;;;;;;1.50;1.40;;;14.30;82.30;;;;;;5070859;28;20461;-75
2021/03/02 11:01:47;;;;;;;2.27;2.17;;;14.30;81.50;;;;;;5089277;28;20879;-74
2021/03/02 11:04:14;;;;;;;1.73;1.67;;;14.60;81.20;;;;;;5087281;28;20452;-78
2021/03/02 11:06:41;;;;;;;3.30;1.87;;;14.80;80.90;;;;;;5074016;28;20463;-77
2021/03/02 11:09:08;;;;;;;2.93;1.80;;;;;;;;;;5071880;28;20462;-77
2021/03/02 11:11:35;;;;;;;1.90;1.40;;;15.30;79.70;;;;;;5073972;28;20474;-77
2021/03/02 11:14:02;;;;;;;2.60;1.90;;;15.40;79.70;;;;;;5071624;28;20887;-77
2021/03/02 11:16:28;;;;;;;2.23;1.50;;;15.40;79.60;;;;;;5074246;28;20463;-76
2021/03/02 11:18:57;;;;;;;2.63;1.60;;;15.50;79.30;;;;;;5071876;28;20461;-76
2021/03/02 11:21:24;;;;;;;1.83;1.40;;;15.50;79.30;;;;;;5074089;28;20463;-76
2021/03/02 11:23:51;;;;;;;2.23;1.53;;;15.70;78.60;;;;;;5087882;28;20956;-77
2021/03/02 11:26:21;;;;;;;1.60;1.50;;;15.80;78.30;;;;;;5074382;28;20791;-77
2021/03/02 11:28:47;;;;;;;2.70;2.03;;;16.00;77.90;;;;;;5072551;28;20858;-77
2021/03/02 11:31:14;;;;;;;2.10;1.90;;;16.30;77.90;;;;;;5073557;28;20530;-75
2021/03/02 11:33:41;;;;;;;2.07;1.97;;;16.60;76.50;;;;;;5070276;28;20452;-77
2021/03/02 11:36:08;;;;;;;1.90;1.53;;;16.90;74.70;;;;;;5073132;28;20459;-77
2021/03/02 11:38:36;;;;;;;1.30;1.30;;;17.20;74.40;;;;;;5072220;28;20485;-76
2021/03/02 11:41:04;;;;;;;2.30;1.60;;;17.40;74.50;;;;;;5073717;28;20459;-76
2021/03/02 11:43:31;;;;;;;4.07;2.47;;;17.60;72.80;;;;;;5071678;28;20484;-77
2021/03/02 11:45:57;;;;;;;2.77;2.53;;;17.70;72.20;;;;;;5073171;28;20526;-77
2021/03/02 11:48:24;;;;;;;4.97;2.10;;;17.70;71.70;;;;;;5070724;28;20460;-77
2021/03/02 11:50:51;;;;;;;3.50;2.10;;;17.80;72.20;;;;;;5088665;28;20554;-78
2021/03/02 11:53:17;;;;;;;1.80;1.50;;;17.70;72.00;;;;;;5070289;28;20449;-77
2021/03/02 11:55:44;;;;;;;5.90;2.27;;;17.70;73.00;;;;;;5072849;28;20464;-77
2021/03/02 11:58:13;;;;;;;2.33;2.23;;;18.00;72.10;;;;;;5086277;28;20457;-77
2021/03/02 12:00:39;;;;;;;2.23;1.90;;;18.00;72.20;;;;;;5073603;28;20481;-78
2021/03/02 12:03:06;;;;;;;3.13;2.00;;;18.30;70.50;;;;;;5071547;28;20488;-78
2021/03/02 12:05:33;;;;;;;4.47;2.40;;;18.40;70.40;;;;;;5076366;28;20825;-78
2021/03/02 12:08:00;;;;;;;2.43;1.90;;;18.50;70.30;;;;;;5072982;28;20453;-77
2021/03/02 12:10:29;;;;;;;1.70;1.53;;;18.70;69.10;;;;;;5075082;28;20532;-77
2021/03/02 12:12:55;;;;;;;1.87;1.70;;;18.70;69.60;;;;;;5072988;28;20479;-78
2021/03/02 12:15:23;;;;;;;4.87;2.53;;;18.80;68.70;;;;;;5078457;28;20963;-77
2021/03/02 12:17:50;;;;;;;2.17;1.80;;;18.80;67.80;;;;;;5076940;28;20453;-80
2021/03/02 12:20:17;;;;;;;2.27;2.03;;;18.80;68.20;;;;;;5072605;28;20471;-76
2021/03/02 12:22:43;;;;;;;1.73;1.53;;;18.50;68.70;;;;;;5069948;28;20492;-76
2021/03/02 12:25:10;;;;;;;3.27;1.93;;;18.10;69.70;;;;;;5072239;28;20816;-76
2021/03/02 12:27:37;;;;;;;2.90;2.33;;;18.10;70.00;;;;;;5070136;28;20461;-77
2021/03/02 12:30:06;;;;;;;4.10;2.20;;;18.00;69.10;;;;;;5073018;28;20457;-77
2021/03/02 12:32:33;;;;;;;3.10;1.80;;;18.00;70.00;;;;;;5070986;28;20460;-77
2021/03/02 12:35:00;;;;;;;2.40;1.73;;;17.80;69.00;;;;;;5072503;28;20460;-75
2021/03/02 12:37:31;;;;;;;1.60;1.50;;;17.70;69.90;;;;;;5070967;28;20463;-76
2021/03/02 12:39:57;;;;;;;1.93;1.57;;;17.80;69.80;;;;;;5087220;28;20461;-77
2021/03/02 12:42:24;;;;;;;3.80;2.47;;;17.70;69.20;;;;;;5070894;28;20530;-73
2021/03/02 12:44:51;;;;;;;2.90;1.70;;;17.60;69.40;;;;;;5070075;28;20457;-73
2021/03/02 12:47:18;;;;;;;1.63;1.57;;;17.50;70.30;;;;;;5071884;28;20977;-71
2021/03/02 12:49:45;;;;;;;3.13;1.97;;;17.40;71.10;;;;;;5069765;28;20464;-72
2021/03/02 12:52:12;;;;;;;2.23;1.80;;;17.50;70.70;;;;;;5071875;28;20866;-72
2021/03/02 12:54:39;;;;;;;4.00;2.30;;;17.40;69.00;;;;;;5072694;28;20487;-74
2021/03/02 12:57:06;;;;;;;6.40;2.80;;;17.30;70.00;;;;;;5072519;28;20464;-75
2021/03/02 12:59:33;;;;;;;3.93;1.77;;;17.30;70.20;;;;;;5069026;28;20514;-78
2021/03/02 13:02:00;;;;;;;2.27;1.30;;;17.40;70.40;;;;;;5070781;28;20503;-75
2021/03/02 13:04:27;;;;;;;2.00;1.33;;;17.50;70.30;;;;;;5069746;28;20472;-75
2021/03/02 13:06:55;;;;;;;1.83;1.50;;;17.60;69.30;;;;;;5071808;28;20460;-75
2021/03/02 13:09:22;;;;;;;2.00;1.90;;;17.80;68.80;;;;;;5070997;28;20455;-75